Time;durP1;ratioP1;P1;durP2;ratioP2;P2;SDS_P1;SDS_P2;PMS_P1;PMS_P2;Temp;Humidity;BMP_temperature;BMP_pressure;BME280_temperature;BME280_humidity;BME280_pressure;Samples;Min_cycle;Max_cycle;Signal;HPM_P1;HPM_P2
2023/09/01 00:01:01;;;;;;;4.40;2.60;;;11.90;99.90;;;;;;5084032;27;20036;-57
2023/09/01 00:03:26;;;;;;;3.47;2.47;;;11.90;99.90;;;;;;5069075;28;20464;-57
2023/09/01 00:05:53;;;;;;;10.55;3.00;;;11.80;99.90;;;;;;5087930;27;20052;-57
2023/09/01 00:08:19;;;;;;;5.85;2.63;;;11.80;99.90;;;;;;5085818;28;20089;-57
2023/09/01 00:10:46;;;;;;;6.25;2.90;;;11.80;99.90;;;;;;5081537;27;20545;-57
2023/09/01 00:13:12;;;;;;;6.70;3.13;;;11.80;99.90;;;;;;5085810;27;20059;-57
2023/09/01 00:15:38;;;;;;;5.68;3.25;;;11.80;99.90;;;;;;5085454;27;20803;-57
2023/09/01 00:18:05;;;;;;;5.47;2.95;;;11.80;99.90;;;;;;5085892;27;20489;-58
2023/09/01 00:20:34;;;;;;;4.38;2.58;;;11.80;99.90;;;;;;5085801;27;20128;-57
2023/09/01 00:23:01;;;;;;;6.80;3.05;;;11.80;99.90;;;;;;5085237;27;20844;-57
2023/09/01 00:25:27;;;;;;;4.70;2.90;;;11.80;99.90;;;;;;5089084;27;20031;-56
2023/09/01 00:27:53;;;;;;;4.50;2.72;;;11.70;99.90;;;;;;5086236;27;20051;-57
2023/09/01 00:30:18;;;;;;;4.57;2.72;;;11.80;99.90;;;;;;5062590;27;20043;-57
2023/09/01 00:32:44;;;;;;;5.95;3.22;;;11.80;99.90;;;;;;5076915;27;20139;-57
2023/09/01 00:35:10;;;;;;;3.97;3.03;;;11.80;99.90;;;;;;5087741;27;20043;-57
2023/09/01 00:37:37;;;;;;;5.28;3.00;;;11.70;99.90;;;;;;5084879;27;20566;-57
2023/09/01 00:40:03;;;;;;;4.43;3.00;;;11.80;99.90;;;;;;5067977;28;20040;-56
2023/09/01 00:42:29;;;;;;;7.93;3.10;;;11.70;99.90;;;;;;5087313;27;20051;-57
2023/09/01 00:44:55;;;;;;;4.72;3.38;;;11.70;99.90;;;;;;5087088;27;20071;-57
2023/09/01 00:47:21;;;;;;;5.07;3.38;;;11.70;99.90;;;;;;5055701;28;20044;-57
2023/09/01 00:49:47;;;;;;;5.97;3.33;;;11.70;99.90;;;;;;5073220;27;20493;-57
2023/09/01 00:52:12;;;;;;;6.03;3.47;;;11.60;99.90;;;;;;5083681;27;20071;-56
2023/09/01 00:54:38;;;;;;;6.10;4.13;;;11.60;99.90;;;;;;5067743;28;20036;-57
2023/09/01 00:57:04;;;;;;;7.45;4.20;;;11.60;99.90;;;;;;5084165;27;20167;-56
2023/09/01 00:59:31;;;;;;;6.57;3.95;;;11.50;99.90;;;;;;5069351;28;20050;-57
2023/09/01 01:01:57;;;;;;;5.03;4.10;;;11.50;99.90;;;;;;5081198;28;20391;-56
2023/09/01 01:04:23;;;;;;;8.88;4.28;;;11.40;99.90;;;;;;5062261;28;20059;-58
2023/09/01 01:07:06;;;;;;;6.72;4.20;;;11.40;99.90;;;;;;5067113;28;20429;-57
2023/09/01 01:09:40;;;;;;;;;;;11.40;99.90;;;;;;5083166;27;20040;-57
2023/09/01 01:12:20;;;;;;;6.80;4.15;;;11.40;99.90;;;;;;5075361;27;19932;-57
2023/09/01 01:14:47;;;;;;;5.80;3.63;;;11.30;99.90;;;;;;5048192;28;20765;-58
2023/09/01 01:17:18;;;;;;;7.78;3.92;;;11.30;99.90;;;;;;5062432;28;20704;-57
2023/09/01 01:20:02;;;;;;;6.70;3.60;;;11.40;99.90;;;;;;5067179;28;20170;-57
2023/09/01 01:22:40;;;;;;;5.53;2.53;;;11.30;99.90;;;;;;5064492;28;21084;-58
2023/09/01 01:25:11;;;;;;;6.82;3.13;;;11.30;99.90;;;;;;5059239;28;20155;-57
2023/09/01 01:27:38;;;;;;;6.38;3.15;;;11.20;99.90;;;;;;5061449;28;20075;-56
2023/09/01 01:30:05;;;;;;;6.03;3.47;;;11.20;99.90;;;;;;5064791;28;20557;-55
2023/09/01 01:32:32;;;;;;;8.30;3.47;;;11.20;99.90;;;;;;5062097;28;20193;-56
2023/09/01 01:35:40;;;;;;;5.25;3.10;;;11.20;99.90;;;;;;5042917;28;20522;-55
2023/09/01 01:38:05;;;;;;;4.68;2.90;;;11.20;99.90;;;;;;5055461;28;20142;-57
2023/09/01 01:40:32;;;;;;;6.78;3.00;;;11.20;99.90;;;;;;5065444;28;20068;-56
2023/09/01 01:43:03;;;;;;;5.78;2.90;;;11.20;99.90;;;;;;5061811;28;20959;-57
2023/09/01 01:45:30;;;;;;;4.53;3.40;;;11.20;99.90;;;;;;5062487;28;21065;-56
2023/09/01 01:47:57;;;;;;;5.43;3.10;;;11.20;99.90;;;;;;5064270;28;20194;-58
2023/09/01 01:50:23;;;;;;;8.15;3.30;;;11.20;99.90;;;;;;5063838;28;20055;-56
2023/09/01 01:52:48;;;;;;;4.53;3.10;;;11.20;99.90;;;;;;5048524;28;20036;-55
2023/09/01 01:55:14;;;;;;;7.47;3.05;;;11.10;99.90;;;;;;5062115;28;20046;-56
2023/09/01 01:57:40;;;;;;;4.90;2.60;;;11.10;99.90;;;;;;5066114;28;20056;-56
2023/09/01 02:00:11;;;;;;;3.85;2.42;;;11.00;99.90;;;;;;5065825;28;20105;-57
2023/09/01 02:02:38;;;;;;;3.78;2.70;;;11.00;99.90;;;;;;5062963;28;20046;-57
2023/09/01 02:05:06;;;;;;;6.30;3.20;;;11.00;99.90;;;;;;5064299;28;20054;-56
2023/09/01 02:07:35;;;;;;;6.55;3.28;;;11.00;99.90;;;;;;5065876;28;20062;-55
2023/09/01 02:10:05;;;;;;;5.50;3.00;;;11.00;99.90;;;;;;5062816;28;20246;-56
2023/09/01 02:12:33;;;;;;;6.10;3.08;;;11.00;99.90;;;;;;5051790;28;20091;-57
2023/09/01 02:14:59;;;;;;;5.40;3.42;;;11.00;99.90;;;;;;5062651;28;20673;-56
2023/09/01 02:17:25;;;;;;;6.35;3.33;;;11.00;99.90;;;;;;5063645;28;21064;-58
2023/09/01 02:19:51;;;;;;;5.88;3.13;;;11.00;99.90;;;;;;5065275;28;20043;-57
2023/09/01 02:22:16;;;;;;;3.42;3.00;;;11.00;99.90;;;;;;5061207;28;20127;-58
2023/09/01 02:24:42;;;;;;;4.45;3.03;;;10.90;99.90;;;;;;5065421;28;20487;-57
2023/09/01 02:27:08;;;;;;;4.28;3.03;;;10.90;99.90;;;;;;5062644;28;20056;-58
2023/09/01 02:29:34;;;;;;;4.18;2.88;;;10.90;99.90;;;;;;5061493;28;20548;-57
2023/09/01 02:32:00;;;;;;;3.85;2.67;;;10.90;99.90;;;;;;5062215;28;20431;-57
2023/09/01 02:34:26;;;;;;;3.25;2.20;;;10.90;99.90;;;;;;5054545;28;20056;-56
2023/09/01 02:36:52;;;;;;;3.60;2.50;;;10.80;99.90;;;;;;5064602;28;20687;-56
2023/09/01 02:39:17;;;;;;;3.30;2.45;;;10.80;99.90;;;;;;5062151;28;20116;-56
2023/09/01 02:41:43;;;;;;;5.25;2.20;;;10.70;99.90;;;;;;5052731;28;20044;-57
2023/09/01 02:44:09;;;;;;;4.32;2.55;;;10.70;99.90;;;;;;5065051;28;20032;-56
2023/09/01 02:46:34;;;;;;;2.53;2.30;;;10.70;99.90;;;;;;5064757;28;20155;-57
2023/09/01 02:49:00;;;;;;;9.23;3.28;;;10.60;99.90;;;;;;5065628;28;20390;-56
2023/09/01 02:51:26;;;;;;;5.28;3.80;;;10.60;99.90;;;;;;5062284;28;20044;-58
2023/09/01 02:53:52;;;;;;;6.07;3.63;;;10.60;99.90;;;;;;5050384;28;20057;-58
2023/09/01 02:56:18;;;;;;;4.80;3.33;;;10.70;99.90;;;;;;5060861;28;20036;-58
2023/09/01 02:58:45;;;;;;;8.85;3.97;;;10.70;99.90;;;;;;5065055;28;20419;-56
2023/09/01 03:01:11;;;;;;;3.17;2.83;;;10.70;99.90;;;;;;5063572;28;21007;-57
2023/09/01 03:03:39;;;;;;;5.18;2.70;;;10.70;99.90;;;;;;5066051;28;20361;-56
2023/09/01 03:06:05;;;;;;;4.60;3.13;;;10.70;99.90;;;;;;5067014;28;20121;-56
2023/09/01 03:08:32;;;;;;;4.75;3.00;;;10.70;99.90;;;;;;5066576;28;20032;-57
2023/09/01 03:10:57;;;;;;;4.28;3.15;;;10.70;99.90;;;;;;5060875;28;20042;-56
2023/09/01 03:13:23;;;;;;;5.65;3.03;;;10.60;99.90;;;;;;5081512;28;20639;-56
2023/09/01 03:15:49;;;;;;;5.45;2.80;;;10.60;99.90;;;;;;5082038;28;20170;-57
2023/09/01 03:18:15;;;;;;;4.65;3.50;;;10.60;99.90;;;;;;5085717;28;20067;-57
2023/09/01 03:20:41;;;;;;;5.15;3.22;;;10.60;99.90;;;;;;5073143;28;20071;-57
2023/09/01 03:23:07;;;;;;;9.02;3.03;;;10.50;99.90;;;;;;5089187;28;21054;-57
2023/09/01 03:25:32;;;;;;;7.22;3.30;;;10.50;99.90;;;;;;5093497;28;20119;-57
2023/09/01 03:27:58;;;;;;;4.18;2.78;;;10.50;99.90;;;;;;5091703;28;20035;-57
2023/09/01 03:30:24;;;;;;;5.20;2.90;;;10.50;99.90;;;;;;5090732;28;20129;-57
2023/09/01 03:32:49;;;;;;;5.30;3.22;;;10.50;99.90;;;;;;5100014;28;20469;-58
2023/09/01 03:35:15;;;;;;;5.90;3.38;;;10.50;99.90;;;;;;5098831;27;20143;-56
2023/09/01 03:37:41;;;;;;;6.65;3.28;;;10.50;99.90;;;;;;5098840;27;20035;-55
2023/09/01 03:40:09;;;;;;;5.45;3.40;;;10.50;99.90;;;;;;5098991;27;20035;-57
2023/09/01 03:42:38;;;;;;;5.32;3.10;;;10.50;99.90;;;;;;5095935;27;20044;-58
2023/09/01 03:45:05;;;;;;;11.50;3.42;;;10.50;99.90;;;;;;5097695;28;20809;-57
2023/09/01 03:47:31;;;;;;;3.92;2.80;;;10.50;99.90;;;;;;5093309;27;20040;-58
2023/09/01 03:49:57;;;;;;;7.07;3.35;;;10.50;99.90;;;;;;5083762;27;20796;-56
2023/09/01 03:52:23;;;;;;;5.53;3.30;;;10.60;99.90;;;;;;5095302;27;20068;-57
2023/09/01 03:54:48;;;;;;;5.80;3.40;;;10.60;99.90;;;;;;5076524;28;20035;-57
2023/09/01 03:57:15;;;;;;;6.63;3.00;;;10.60;99.90;;;;;;5094369;28;20093;-57
2023/09/01 03:59:42;;;;;;;5.07;2.90;;;10.60;99.90;;;;;;5077044;28;20051;-57
2023/09/01 04:02:08;;;;;;;9.13;2.97;;;10.60;99.90;;;;;;5093898;27;20216;-56
2023/09/01 04:04:34;;;;;;;3.83;2.63;;;10.60;99.90;;;;;;5095621;28;20081;-57
2023/09/01 04:06:59;;;;;;;5.25;2.80;;;10.60;99.90;;;;;;5082279;28;20070;-58
2023/09/01 04:09:25;;;;;;;5.55;3.05;;;10.60;99.90;;;;;;5096616;27;20484;-58
2023/09/01 04:11:51;;;;;;;5.32;2.92;;;10.60;99.90;;;;;;5085524;27;20121;-57
2023/09/01 04:14:17;;;;;;;3.97;3.08;;;10.50;99.90;;;;;;5075809;28;20066;-57
2023/09/01 04:16:42;;;;;;;6.72;3.10;;;10.50;99.90;;;;;;5050544;28;20731;-57
2023/09/01 04:19:08;;;;;;;6.53;3.40;;;10.50;99.90;;;;;;5075150;28;20097;-56
2023/09/01 04:21:34;;;;;;;5.53;3.20;;;10.50;99.90;;;;;;5071493;28;20040;-58
2023/09/01 04:23:59;;;;;;;6.75;3.28;;;10.50;99.90;;;;;;5074418;28;20047;-56
2023/09/01 04:26:25;;;;;;;8.80;3.35;;;10.50;99.90;;;;;;5075318;28;20070;-58
2023/09/01 04:28:51;;;;;;;8.82;3.70;;;10.60;99.90;;;;;;5071926;28;20032;-55
2023/09/01 04:31:29;;;;;;;7.68;3.63;;;10.60;99.90;;;;;;5072713;28;20502;-57
2023/09/01 04:33:56;;;;;;;4.85;3.17;;;10.60;99.90;;;;;;5073047;28;20321;-58
2023/09/01 04:36:22;;;;;;;5.20;2.97;;;10.60;99.90;;;;;;5072222;28;20051;-58
2023/09/01 04:38:48;;;;;;;5.88;3.20;;;10.60;99.90;;;;;;5075341;28;20394;-57
2023/09/01 04:41:14;;;;;;;6.50;3.20;;;10.60;99.90;;;;;;5055721;28;20040;-56
2023/09/01 04:43:41;;;;;;;4.53;2.90;;;10.60;99.90;;;;;;5072451;28;20044;-57
2023/09/01 04:46:07;;;;;;;5.25;2.83;;;10.60;99.90;;;;;;5056007;28;20094;-58
2023/09/01 04:48:34;;;;;;;5.07;3.30;;;10.60;99.90;;;;;;5074796;28;20487;-58
2023/09/01 04:51:02;;;;;;;3.72;2.72;;;10.60;99.90;;;;;;5040718;28;20461;-57
2023/09/01 04:53:29;;;;;;;8.70;3.10;;;10.60;99.90;;;;;;5050420;28;20056;-57
2023/09/01 04:55:55;;;;;;;9.13;2.65;;;10.60;99.90;;;;;;5065526;28;20657;-56
2023/09/01 04:58:21;;;;;;;3.15;2.40;;;10.60;99.90;;;;;;5067717;28;20060;-57
2023/09/01 05:00:47;;;;;;;3.08;2.40;;;10.60;99.90;;;;;;5063540;28;20387;-57
2023/09/01 05:03:13;;;;;;;4.75;3.17;;;10.60;99.90;;;;;;5066234;28;20470;-56
2023/09/01 05:05:40;;;;;;;4.47;2.80;;;10.60;99.90;;;;;;5052237;28;20029;-56
2023/09/01 05:08:06;;;;;;;6.40;2.83;;;10.50;99.90;;;;;;5066888;28;21960;-56
2023/09/01 05:10:32;;;;;;;5.18;2.85;;;10.50;99.90;;;;;;5065717;28;20032;-56
2023/09/01 05:12:57;;;;;;;2.97;2.47;;;10.50;99.90;;;;;;5066273;27;20052;-57
2023/09/01 05:15:23;;;;;;;5.38;2.70;;;10.50;99.90;;;;;;5065220;28;20281;-57
2023/09/01 05:17:49;;;;;;;6.95;2.78;;;10.50;99.90;;;;;;5050739;28;20413;-57
2023/09/01 05:20:15;;;;;;;4.50;2.97;;;10.50;99.90;;;;;;5072241;28;20040;-57
2023/09/01 05:22:41;;;;;;;7.90;3.30;;;10.60;99.90;;;;;;5071474;28;20036;-58
2023/09/01 05:25:07;;;;;;;4.93;2.67;;;10.60;99.90;;;;;;5073220;28;20131;-56
2023/09/01 05:27:33;;;;;;;6.03;3.58;;;10.60;99.90;;;;;;5072495;28;20097;-58
2023/09/01 05:29:59;;;;;;;5.95;3.25;;;10.70;99.90;;;;;;5074806;28;20424;-56
2023/09/01 05:32:24;;;;;;;5.90;3.50;;;10.70;99.90;;;;;;5074275;28;20043;-58
2023/09/01 05:34:50;;;;;;;4.80;3.10;;;10.70;99.90;;;;;;5070045;28;20031;-57
2023/09/01 05:37:16;;;;;;;4.95;3.10;;;10.70;99.90;;;;;;5073937;28;20402;-57
2023/09/01 05:39:42;;;;;;;4.45;2.80;;;10.70;99.90;;;;;;5073266;28;20090;-57
2023/09/01 05:42:09;;;;;;;6.03;3.60;;;10.80;99.90;;;;;;5074471;28;20044;-54
2023/09/01 05:44:35;;;;;;;5.47;3.13;;;10.80;99.90;;;;;;5056234;28;20104;-57
2023/09/01 05:47:03;;;;;;;7.72;3.80;;;10.90;99.90;;;;;;5071022;28;20487;-56
2023/09/01 05:49:31;;;;;;;5.43;3.20;;;10.90;99.90;;;;;;5068868;28;20094;-57
2023/09/01 05:51:57;;;;;;;9.57;3.65;;;11.00;99.90;;;;;;5071371;28;20036;-58
2023/09/01 05:54:23;;;;;;;5.57;3.50;;;11.00;99.90;;;;;;5073046;28;20054;-57
2023/09/01 05:56:49;;;;;;;6.07;3.67;;;11.10;99.90;;;;;;5072803;28;20178;-56
2023/09/01 05:59:14;;;;;;;8.90;3.75;;;11.10;99.90;;;;;;5072981;28;20051;-57
2023/09/01 06:01:41;;;;;;;8.32;3.85;;;11.20;99.90;;;;;;5053175;28;20564;-57
2023/09/01 06:04:07;;;;;;;5.22;3.75;;;11.30;99.90;;;;;;5069418;28;20471;-57
2023/09/01 06:06:35;;;;;;;9.43;3.47;;;11.40;99.90;;;;;;5074364;28;20056;-57
2023/09/01 06:09:04;;;;;;;6.25;3.78;;;11.40;99.90;;;;;;5073305;28;20040;-58
2023/09/01 06:11:30;;;;;;;8.45;3.85;;;11.50;99.90;;;;;;5039011;28;20093;-56
2023/09/01 06:13:57;;;;;;;8.90;3.88;;;11.60;99.90;;;;;;5053577;28;20055;-58
2023/09/01 06:16:23;;;;;;;7.03;3.60;;;11.60;99.90;;;;;;5073262;28;20459;-57
2023/09/01 06:18:48;;;;;;;5.25;3.28;;;11.70;99.90;;;;;;5066939;28;20119;-56
2023/09/01 06:21:17;;;;;;;6.90;3.58;;;11.70;99.90;;;;;;5073211;28;20417;-57
2023/09/01 06:23:47;;;;;;;9.38;3.97;;;11.80;99.90;;;;;;5074741;28;20048;-55
2023/09/01 06:26:13;;;;;;;5.90;3.42;;;11.90;99.90;;;;;;5071493;28;20063;-57
2023/09/01 06:28:42;;;;;;;6.43;3.63;;;12.00;99.90;;;;;;5071621;28;20475;-55
2023/09/01 06:31:09;;;;;;;8.75;3.33;;;12.00;99.90;;;;;;5071702;28;20039;-58
2023/09/01 06:33:40;;;;;;;6.15;3.60;;;12.10;99.90;;;;;;5069839;28;20048;-57
2023/09/01 06:36:06;;;;;;;5.22;3.30;;;12.20;99.90;;;;;;5072240;28;20051;-58
2023/09/01 06:38:31;;;;;;;7.97;3.38;;;12.20;99.90;;;;;;5072002;28;20040;-57
2023/09/01 06:40:57;;;;;;;9.73;3.58;;;12.30;99.90;;;;;;5053586;28;20050;-58
2023/09/01 06:43:23;;;;;;;4.55;3.10;;;12.40;99.90;;;;;;5067954;28;20100;-56
2023/09/01 06:45:49;;;;;;;6.55;3.35;;;12.40;99.90;;;;;;5065346;28;20038;-55
2023/09/01 06:48:14;;;;;;;7.60;3.60;;;12.50;99.90;;;;;;5053498;28;21331;-55
2023/09/01 06:50:40;;;;;;;9.95;3.38;;;12.60;99.90;;;;;;5065512;28;20407;-57
2023/09/01 06:53:06;;;;;;;5.50;3.20;;;12.70;99.90;;;;;;5067403;28;20042;-57
2023/09/01 06:55:32;;;;;;;9.50;3.55;;;12.80;99.90;;;;;;5054766;28;20039;-56
2023/09/01 06:57:58;;;;;;;5.20;2.92;;;12.80;99.90;;;;;;5068741;28;20419;-57
2023/09/01 07:00:23;;;;;;;8.05;3.35;;;12.90;99.90;;;;;;5067525;28;20157;-54
2023/09/01 07:02:49;;;;;;;6.63;3.20;;;13.00;99.90;;;;;;5068912;28;20048;-57
2023/09/01 07:05:17;;;;;;;6.43;2.85;;;13.00;99.90;;;;;;5057946;28;20299;-55
2023/09/01 07:07:42;;;;;;;6.97;2.95;;;13.10;99.90;;;;;;5064263;28;20044;-57
2023/09/01 07:10:08;;;;;;;5.15;2.85;;;13.20;99.90;;;;;;5072752;28;20032;-57
2023/09/01 07:12:34;;;;;;;4.88;2.65;;;13.30;99.90;;;;;;5070847;28;20070;-57
2023/09/01 07:15:02;;;;;;;5.70;2.85;;;13.30;99.90;;;;;;5039331;28;20048;-56
2023/09/01 07:17:28;;;;;;;4.75;2.75;;;13.40;99.90;;;;;;5065387;28;20165;-58
2023/09/01 07:19:54;;;;;;;6.68;2.53;;;13.40;99.90;;;;;;5064173;28;20261;-57
2023/09/01 07:22:19;;;;;;;5.88;2.80;;;13.50;99.90;;;;;;5060608;28;20048;-58
2023/09/01 07:24:45;;;;;;;6.75;2.53;;;13.60;99.90;;;;;;5039737;28;24308;-57
2023/09/01 07:27:11;;;;;;;3.55;2.50;;;13.60;99.90;;;;;;5067130;28;22268;-56
2023/09/01 07:29:37;;;;;;;6.68;2.10;;;13.70;99.90;;;;;;5063051;28;20044;-56
2023/09/01 07:32:03;;;;;;;5.38;2.17;;;13.80;99.90;;;;;;5061537;28;20094;-57
2023/09/01 07:34:29;;;;;;;4.95;2.08;;;13.90;99.90;;;;;;5064101;28;20036;-56
2023/09/01 07:36:55;;;;;;;8.18;2.50;;;14.00;99.90;;;;;;5064597;28;20143;-56
2023/09/01 07:39:21;;;;;;;6.72;2.35;;;14.10;99.90;;;;;;5067067;28;20039;-56
2023/09/01 07:41:47;;;;;;;4.38;2.00;;;14.30;99.90;;;;;;5083570;28;20048;-58
2023/09/01 07:44:20;;;;;;;3.30;1.45;;;14.40;99.90;;;;;;5062812;28;21065;-58
2023/09/01 07:46:46;;;;;;;5.05;1.77;;;14.60;99.90;;;;;;5063901;28;20478;-57
2023/09/01 07:49:12;;;;;;;5.25;1.70;;;14.70;99.90;;;;;;5049932;28;20032;-58
2023/09/01 07:51:40;;;;;;;3.95;1.80;;;14.80;99.90;;;;;;5047362;28;20513;-56
2023/09/01 07:54:06;;;;;;;3.13;1.83;;;14.90;99.90;;;;;;5050842;28;20090;-56
2023/09/01 07:56:32;;;;;;;3.03;1.48;;;15.00;99.90;;;;;;5065280;28;20040;-57
2023/09/01 07:58:58;;;;;;;3.10;1.58;;;15.10;99.90;;;;;;5064550;28;20036;-58
2023/09/01 08:01:24;;;;;;;5.53;1.50;;;15.20;99.90;;;;;;5062941;28;20093;-59
2023/09/01 08:03:49;;;;;;;4.03;1.70;;;15.30;99.90;;;;;;5059201;28;20043;-57
2023/09/01 08:06:16;;;;;;;4.60;2.25;;;15.30;99.90;;;;;;5067527;28;20048;-58
2023/09/01 08:08:41;;;;;;;3.30;1.70;;;15.40;99.90;;;;;;5065717;28;20041;-58
2023/09/01 08:11:07;;;;;;;4.47;1.70;;;15.50;99.90;;;;;;5067540;28;20047;-56
2023/09/01 08:13:33;;;;;;;4.45;1.58;;;15.60;99.90;;;;;;5063989;28;20060;-56
2023/09/01 08:15:59;;;;;;;6.53;1.75;;;15.70;99.90;;;;;;5061352;28;20056;-56
2023/09/01 08:18:25;;;;;;;6.90;1.75;;;15.80;99.90;;;;;;5061905;28;20161;-58
2023/09/01 08:20:50;;;;;;;7.78;1.50;;;15.90;99.90;;;;;;5052167;28;20078;-58
2023/09/01 08:23:21;;;;;;;4.78;1.50;;;15.90;99.90;;;;;;5036195;28;20055;-56
2023/09/01 08:25:47;;;;;;;4.55;1.40;;;16.00;99.90;;;;;;5059185;28;20511;-57
2023/09/01 08:28:13;;;;;;;2.75;1.60;;;16.10;99.90;;;;;;5058486;28;20474;-57
2023/09/01 08:30:38;;;;;;;5.78;1.80;;;16.20;99.90;;;;;;5061498;28;20141;-57
2023/09/01 08:33:04;;;;;;;5.03;1.73;;;16.20;99.90;;;;;;5061618;28;20046;-56
2023/09/01 08:35:30;;;;;;;6.13;1.73;;;16.30;99.90;;;;;;5065201;28;20486;-58
2023/09/01 08:37:56;;;;;;;2.60;1.52;;;16.40;99.90;;;;;;5066531;28;20089;-57
2023/09/01 08:40:22;;;;;;;1.95;1.20;;;16.40;99.90;;;;;;5064088;28;20372;-58
2023/09/01 08:42:49;;;;;;;5.63;1.30;;;16.60;99.90;;;;;;5068020;28;20037;-58
2023/09/01 08:45:17;;;;;;;4.35;1.75;;;16.60;99.90;;;;;;5059072;28;20498;-59
2023/09/01 08:47:45;;;;;;;3.63;1.45;;;16.70;99.90;;;;;;5065274;28;20394;-61
2023/09/01 08:50:12;;;;;;;3.65;1.35;;;16.80;99.90;;;;;;5068776;28;20062;-61
2023/09/01 08:52:41;;;;;;;5.32;1.63;;;16.80;99.90;;;;;;5051415;28;20044;-62
2023/09/01 08:55:07;;;;;;;4.65;1.40;;;16.90;99.90;;;;;;5067765;28;20131;-62
2023/09/01 08:57:33;;;;;;;4.00;1.42;;;17.00;99.90;;;;;;5069496;28;20044;-61
2023/09/01 08:59:59;;;;;;;3.70;1.23;;;17.00;99.90;;;;;;5051030;28;20618;-62
2023/09/01 09:02:25;;;;;;;3.67;1.15;;;17.10;99.90;;;;;;5052450;28;20048;-62
2023/09/01 09:04:50;;;;;;;3.60;1.63;;;17.20;99.90;;;;;;5049067;28;20081;-61
2023/09/01 09:07:18;;;;;;;4.45;1.30;;;17.30;99.90;;;;;;5050149;28;20044;-62
2023/09/01 09:09:52;;;;;;;4.75;1.80;;;17.40;99.90;;;;;;5068508;28;20111;-60
2023/09/01 09:12:19;;;;;;;2.83;1.30;;;17.40;99.90;;;;;;5073638;28;20124;-61
2023/09/01 09:14:49;;;;;;;2.70;1.40;;;17.40;99.90;;;;;;5088576;28;20520;-62
2023/09/01 09:17:15;;;;;;;2.22;1.30;;;17.40;99.90;;;;;;5078188;28;20219;-63
2023/09/01 09:19:54;;;;;;;4.25;1.50;;;17.40;99.90;;;;;;5072559;28;20452;-61
2023/09/01 09:22:21;;;;;;;2.97;1.20;;;17.40;99.90;;;;;;5067884;28;20051;-61
2023/09/01 09:24:47;;;;;;;4.18;1.48;;;17.50;99.90;;;;;;5090439;28;20153;-61
2023/09/01 09:27:17;;;;;;;7.32;1.27;;;17.60;99.90;;;;;;5080965;27;20048;-63
2023/09/01 09:29:45;;;;;;;8.48;1.63;;;17.60;99.90;;;;;;5087986;28;20048;-62
2023/09/01 09:32:24;;;;;;;4.60;1.50;;;17.60;99.90;;;;;;5089961;28;20063;-61
2023/09/01 09:35:15;;;;;;;3.53;1.40;;;17.70;99.90;;;;;;5089986;28;20042;-62
2023/09/01 09:37:42;;;;;;;3.75;1.65;;;17.70;99.90;;;;;;5071955;28;20481;-62
2023/09/01 09:40:16;;;;;;;2.88;1.30;;;17.80;99.90;;;;;;5087431;28;21388;-62
2023/09/01 09:42:45;;;;;;;2.35;1.20;;;17.90;99.90;;;;;;5092938;28;20035;-62
2023/09/01 09:45:32;;;;;;;2.88;1.30;;;17.90;99.90;;;;;;5087346;28;20427;-62
2023/09/01 09:48:04;;;;;;;4.05;1.60;;;18.00;99.90;;;;;;5071470;28;20040;-61
2023/09/01 09:50:30;;;;;;;2.75;1.30;;;17.90;99.90;;;;;;5053225;28;20126;-62
2023/09/01 09:52:59;;;;;;;4.85;1.40;;;18.10;99.90;;;;;;5089423;28;20397;-62
2023/09/01 09:55:28;;;;;;;4.22;1.40;;;18.10;99.90;;;;;;5087909;28;20454;-61
2023/09/01 09:58:07;;;;;;;5.40;1.33;;;18.10;99.90;;;;;;5090213;28;20116;-62
2023/09/01 10:00:38;;;;;;;2.78;1.27;;;18.10;99.90;;;;;;5089324;28;20044;-62
2023/09/01 10:03:05;;;;;;;3.00;1.20;;;18.10;99.90;;;;;;5088977;28;20405;-62
2023/09/01 10:05:34;;;;;;;5.57;1.50;;;18.10;99.90;;;;;;5072759;28;20083;-61
2023/09/01 10:08:07;;;;;;;2.33;1.10;;;18.10;99.90;;;;;;5089555;28;20074;-61
2023/09/01 10:10:35;;;;;;;2.65;1.30;;;18.20;99.90;;;;;;5090381;28;20500;-63
2023/09/01 10:13:06;;;;;;;4.88;1.45;;;18.20;99.90;;;;;;5089833;28;20054;-60
2023/09/01 10:15:34;;;;;;;2.83;1.65;;;18.20;99.90;;;;;;5090420;28;20040;-62
2023/09/01 10:18:08;;;;;;;2.05;1.30;;;18.30;99.90;;;;;;5069500;28;20047;-63
2023/09/01 10:20:42;;;;;;;6.50;1.42;;;18.30;99.90;;;;;;5086981;28;20054;-62
2023/09/01 10:23:09;;;;;;;3.60;1.50;;;18.40;99.90;;;;;;5088577;28;20260;-62
2023/09/01 10:25:35;;;;;;;3.97;1.40;;;18.40;99.90;;;;;;5087565;28;20407;-62
2023/09/01 10:28:04;;;;;;;3.38;1.40;;;18.60;99.90;;;;;;5062408;28;20126;-62
2023/09/01 10:30:37;;;;;;;2.17;1.40;;;18.70;99.90;;;;;;5081606;27;20032;-61
2023/09/01 10:33:11;;;;;;;4.18;1.42;;;18.90;99.90;;;;;;5056326;28;20180;-62
2023/09/01 10:35:44;;;;;;;2.55;1.30;;;19.00;99.90;;;;;;5057531;28;20525;-62
2023/09/01 10:38:14;;;;;;;;;;;19.00;99.90;;;;;;5070334;28;20044;-62
2023/09/01 10:40:41;;;;;;;3.45;1.23;;;19.10;99.90;;;;;;5087019;28;19920;-63
2023/09/01 10:43:07;;;;;;;5.28;1.42;;;19.20;99.90;;;;;;5089280;28;20056;-62
2023/09/01 10:45:32;;;;;;;5.07;1.70;;;19.20;99.90;;;;;;5071160;28;20394;-60
2023/09/01 10:47:58;;;;;;;4.05;1.35;;;19.20;99.90;;;;;;5088193;28;20469;-61
2023/09/01 10:50:24;;;;;;;1.90;1.40;;;19.30;99.90;;;;;;5065933;28;20147;-62
2023/09/01 10:53:31;;;;;;;2.78;1.40;;;19.40;99.90;;;;;;5087992;28;20050;-62
2023/09/01 10:56:11;;;;;;;3.20;1.50;;;19.60;99.90;;;;;;5085971;28;20567;-62
2023/09/01 10:58:47;;;;;;;2.72;1.40;;;19.80;99.90;;;;;;5069273;28;20552;-61
2023/09/01 11:01:36;;;;;;;4.82;1.92;;;20.10;99.90;;;;;;5089613;28;20044;-62
2023/09/01 11:04:19;;;;;;;6.57;1.80;;;20.20;99.90;;;;;;5088714;28;20056;-62
2023/09/01 11:07:00;;;;;;;4.45;2.00;;;20.40;99.90;;;;;;5063112;28;20040;-63
2023/09/01 11:09:34;;;;;;;7.05;2.05;;;20.60;99.90;;;;;;5089220;28;20051;-61
2023/09/01 11:12:01;;;;;;;3.50;1.50;;;20.90;99.90;;;;;;5087481;28;20040;-62
2023/09/01 11:14:26;;;;;;;5.38;1.83;;;21.10;99.90;;;;;;5069867;28;20065;-63
2023/09/01 11:16:52;;;;;;;7.55;1.90;;;21.20;99.90;;;;;;5086489;28;20047;-63
2023/09/01 11:19:18;;;;;;;5.53;1.73;;;21.30;99.90;;;;;;5070572;28;20442;-63
2023/09/01 11:21:45;;;;;;;7.22;1.98;;;21.20;99.90;;;;;;5088759;28;20050;-62
2023/09/01 11:24:11;;;;;;;4.32;1.30;;;21.20;99.60;;;;;;5088030;28;20478;-61
2023/09/01 11:26:37;;;;;;;6.22;1.42;;;21.10;99.30;;;;;;5067887;28;20046;-62
2023/09/01 11:29:14;;;;;;;5.05;1.60;;;20.90;98.80;;;;;;5069871;28;20079;-62
2023/09/01 11:31:42;;;;;;;3.22;1.48;;;20.80;99.00;;;;;;5071437;28;20120;-62
2023/09/01 11:34:08;;;;;;;3.03;1.75;;;21.00;99.30;;;;;;5089140;28;20059;-63
2023/09/01 11:36:43;;;;;;;4.50;1.60;;;21.30;99.20;;;;;;5079413;28;20636;-62
2023/09/01 11:39:09;;;;;;;5.80;1.60;;;21.70;99.40;;;;;;5077340;28;20035;-63
2023/09/01 11:41:35;;;;;;;3.17;1.58;;;22.10;98.90;;;;;;5069852;28;20521;-63
2023/09/01 11:44:02;;;;;;;2.92;1.65;;;22.30;98.50;;;;;;5086834;28;20451;-63
2023/09/01 11:46:32;;;;;;;3.90;1.67;;;22.40;98.00;;;;;;5092478;28;20051;-61
2023/09/01 11:48:59;;;;;;;5.53;1.80;;;22.50;97.60;;;;;;5092702;28;20427;-62
2023/09/01 11:51:32;;;;;;;6.07;1.88;;;22.50;97.10;;;;;;5093076;28;20043;-62
2023/09/01 11:53:58;;;;;;;5.00;1.77;;;22.60;97.20;;;;;;5054177;28;20090;-63
2023/09/01 11:56:24;;;;;;;6.05;1.85;;;22.70;96.70;;;;;;5073147;28;20059;-63
2023/09/01 11:58:52;;;;;;;4.95;1.70;;;22.70;96.10;;;;;;5091303;28;20126;-63
2023/09/01 12:01:20;;;;;;;4.97;2.15;;;22.80;95.90;;;;;;5094084;27;20039;-61
2023/09/01 12:03:51;;;;;;;6.68;2.35;;;22.80;95.80;;;;;;5093713;28;20082;-62
2023/09/01 12:06:20;;;;;;;4.22;2.17;;;22.90;95.60;;;;;;5091286;28;20070;-61
2023/09/01 12:08:47;;;;;;;8.32;2.30;;;23.00;95.20;;;;;;5085055;28;20035;-63
2023/09/01 12:11:14;;;;;;;4.70;2.00;;;22.90;95.20;;;;;;5082167;27;20050;-62
2023/09/01 12:13:40;;;;;;;4.95;1.70;;;22.90;94.60;;;;;;5054998;28;20083;-62
2023/09/01 12:16:06;;;;;;;5.03;1.95;;;22.80;94.40;;;;;;5087724;28;20054;-63
2023/09/01 12:18:38;;;;;;;4.70;1.80;;;22.60;94.00;;;;;;5086858;27;20966;-62
2023/09/01 12:21:09;;;;;;;5.43;2.15;;;22.50;94.60;;;;;;5051355;28;20031;-60
2023/09/01 12:23:42;;;;;;;3.65;1.50;;;22.50;94.60;;;;;;5088974;27;20051;-60
2023/09/01 12:26:08;;;;;;;6.70;1.95;;;22.60;94.60;;;;;;5090214;28;20062;-61
2023/09/01 12:28:36;;;;;;;6.80;2.30;;;22.80;94.90;;;;;;5090205;28;20046;-59
2023/09/01 12:31:03;;;;;;;5.00;1.83;;;23.10;95.20;;;;;;5088615;28;20407;-59
2023/09/01 12:33:29;;;;;;;7.13;1.80;;;23.50;94.30;;;;;;5092988;28;20044;-60
2023/09/01 12:35:55;;;;;;;3.42;1.40;;;23.70;94.50;;;;;;5071388;28;20686;-60
2023/09/01 12:38:21;;;;;;;4.32;1.80;;;24.00;93.90;;;;;;5078399;27;20126;-60
2023/09/01 12:40:47;;;;;;;4.40;2.08;;;24.10;92.80;;;;;;5088507;27;20439;-59
2023/09/01 12:43:13;;;;;;;7.57;1.98;;;24.20;92.60;;;;;;5077863;28;20036;-58
2023/09/01 12:45:39;;;;;;;5.22;2.05;;;24.40;92.20;;;;;;5092021;28;20046;-59
2023/09/01 12:48:05;;;;;;;8.40;2.25;;;24.40;91.40;;;;;;5079616;28;20051;-57
2023/09/01 12:50:31;;;;;;;6.45;2.30;;;24.60;91.30;;;;;;5092181;28;20050;-59